createdAt,value
2023-04-06T00:00:29.830Z,13.15
2023-04-06T00:02:58.145Z,11.93
2023-04-06T00:05:26.572Z,11.40
2023-04-06T00:07:57.051Z,9.45
2023-04-06T00:10:25.844Z,10.80
2023-04-06T00:12:54.305Z,10.65
2023-04-06T00:15:22.845Z,12.13
2023-04-06T00:17:51.217Z,11.52
2023-04-06T00:20:20.229Z,11.73
2023-04-06T00:22:48.575Z,9.70
2023-04-06T00:25:18.523Z,11.00
2023-04-06T00:27:46.827Z,10.10
2023-04-06T00:30:15.602Z,11.50
2023-04-06T00:32:44.120Z,10.18
2023-04-06T00:35:12.578Z,10.80
2023-04-06T00:37:41.086Z,11.23
2023-04-06T00:40:10.650Z,9.95
2023-04-06T00:42:41.315Z,12.13
2023-04-06T00:45:10.900Z,11.63
2023-04-06T00:47:39.832Z,11.45
2023-04-06T00:50:09.122Z,11.15
2023-04-06T00:52:37.699Z,11.88
2023-04-06T00:55:09.176Z,11.25
2023-04-06T00:57:43.811Z,11.40
2023-04-06T01:00:13.927Z,10.48
2023-04-06T01:02:43.498Z,11.77
2023-04-06T01:05:12.591Z,10.30
2023-04-06T01:07:50.007Z,9.55
2023-04-06T01:10:26.309Z,11.02
2023-04-06T01:13:01.236Z,11.70
2023-04-06T01:15:45.603Z,12.45
2023-04-06T01:18:17.971Z,12.00
2023-04-06T01:20:56.516Z,10.63
2023-04-06T01:23:28.725Z,12.13
2023-04-06T01:25:57.351Z,12.05
2023-04-06T01:28:26.326Z,11.50
2023-04-06T01:31:05.804Z,11.18
2023-04-06T01:34:00.270Z,11.60
2023-04-06T01:36:28.962Z,12.18
2023-04-06T01:39:08.322Z,12.55
2023-04-06T01:41:39.434Z,12.15
2023-04-06T01:44:07.800Z,11.82
2023-04-06T01:46:36.506Z,12.00
2023-04-06T01:49:07.007Z,10.93
2023-04-06T01:51:41.512Z,13.10
2023-04-06T01:54:15.518Z,12.93
2023-04-06T01:57:11.857Z,11.57
2023-04-06T01:59:50.053Z,10.82
2023-04-06T02:02:32.410Z,12.55
2023-04-06T02:05:10.093Z,12.90
2023-04-06T02:07:39.431Z,12.18
2023-04-06T02:10:14.550Z,12.80
2023-04-06T02:12:42.950Z,12.05
2023-04-06T02:15:15.529Z,12.20
2023-04-06T02:17:44.301Z,12.23
2023-04-06T02:20:13.061Z,13.25
2023-04-06T02:22:41.638Z,13.32
2023-04-06T02:25:11.610Z,12.52
2023-04-06T02:27:40.780Z,12.65
2023-04-06T02:30:10.062Z,13.93
2023-04-06T02:32:38.465Z,12.82
2023-04-06T02:35:07.571Z,12.70
2023-04-06T02:37:36.944Z,13.80
2023-04-06T02:40:07.336Z,13.15
2023-04-06T02:42:37.261Z,12.82
2023-04-06T02:45:07.483Z,14.05
2023-04-06T02:47:41.739Z,12.10
2023-04-06T02:50:11.521Z,13.55
2023-04-06T02:52:47.656Z,10.40
2023-04-06T02:55:16.089Z,11.40
2023-04-06T02:57:46.051Z,12.25
2023-04-06T03:00:15.289Z,9.82
2023-04-06T03:02:43.931Z,9.20
2023-04-06T03:05:16.119Z,12.20
2023-04-06T03:07:46.159Z,10.10
2023-04-06T03:10:37.640Z,9.30
2023-04-06T03:13:08.094Z,9.23
2023-04-06T03:15:47.431Z,9.23
2023-04-06T03:18:23.076Z,10.60
2023-04-06T03:20:52.255Z,10.18
2023-04-06T03:23:21.854Z,11.23
2023-04-06T03:25:54.676Z,11.65
2023-04-06T03:28:24.846Z,11.32
2023-04-06T03:30:57.409Z,12.27
2023-04-06T03:33:42.373Z,11.95
2023-04-06T03:36:15.729Z,11.85
2023-04-06T03:38:45.621Z,12.38
2023-04-06T03:41:15.877Z,12.90
2023-04-06T03:43:52.107Z,11.77
2023-04-06T03:46:20.459Z,12.48
2023-04-06T03:48:52.016Z,11.95
2023-04-06T03:51:22.685Z,13.20
2023-04-06T03:53:50.899Z,14.23
2023-04-06T03:56:19.159Z,13.25
2023-04-06T03:58:50.497Z,14.60
2023-04-06T04:01:20.541Z,14.60
2023-04-06T04:03:51.468Z,13.95
2023-04-06T04:06:20.406Z,14.68
2023-04-06T04:08:48.692Z,13.90
2023-04-06T04:11:18.265Z,14.25
2023-04-06T04:13:50.539Z,14.27
2023-04-06T04:16:20.630Z,13.77
2023-04-06T04:18:49.752Z,13.38
2023-04-06T04:21:18.110Z,13.95
2023-04-06T04:23:46.453Z,14.35
2023-04-06T04:26:14.869Z,13.95
2023-04-06T04:28:46.654Z,15.93
2023-04-06T04:31:18.374Z,14.18
2023-04-06T04:33:49.283Z,13.75
2023-04-06T04:36:24.262Z,13.23
2023-04-06T04:38:52.780Z,12.82
2023-04-06T04:41:21.652Z,13.15
2023-04-06T04:43:50.965Z,13.82
2023-04-06T04:46:24.066Z,12.15
2023-04-06T04:48:55.313Z,12.52
2023-04-06T04:51:25.611Z,12.55
2023-04-06T04:54:08.088Z,11.73
2023-04-06T04:56:36.476Z,14.93
2023-04-06T04:59:30.952Z,15.77
2023-04-06T05:02:08.944Z,14.90
2023-04-06T05:04:47.388Z,14.77
2023-04-06T05:07:21.962Z,13.80
2023-04-06T05:09:51.659Z,15.63
2023-04-06T05:12:21.433Z,15.68
2023-04-06T05:15:03.079Z,15.55
2023-04-06T05:17:31.559Z,14.38
2023-04-06T05:20:01.928Z,13.15
2023-04-06T05:22:32.889Z,13.40
2023-04-06T05:25:10.810Z,13.55
2023-04-06T05:27:41.522Z,13.25
2023-04-06T05:30:20.473Z,13.25
2023-04-06T05:32:50.746Z,12.55
2023-04-06T05:35:20.906Z,12.70
2023-04-06T05:37:53.309Z,13.60
2023-04-06T05:40:25.685Z,13.30
2023-04-06T05:42:54.568Z,13.05
2023-04-06T05:45:23.005Z,13.07
2023-04-06T05:47:56.038Z,13.95
2023-04-06T05:50:29.202Z,14.30
2023-04-06T05:52:58.876Z,12.70
2023-04-06T05:55:32.483Z,13.02
2023-04-06T05:58:19.879Z,13.68
2023-04-06T06:00:49.694Z,16.20
2023-04-06T06:03:19.710Z,16.40
2023-04-06T06:05:54.588Z,15.82
2023-04-06T06:08:31.492Z,15.73
2023-04-06T06:11:02.422Z,17.90
2023-04-06T06:13:31.005Z,13.60
2023-04-06T06:15:59.626Z,14.75
2023-04-06T06:18:28.460Z,14.75
2023-04-06T06:20:59.134Z,12.45
2023-04-06T06:23:28.496Z,13.95
2023-04-06T06:25:58.941Z,12.20
2023-04-06T06:28:28.090Z,13.48
2023-04-06T06:30:56.496Z,12.63
2023-04-06T06:33:27.171Z,13.50
2023-04-06T06:35:58.523Z,13.82
2023-04-06T06:38:27.207Z,15.30
2023-04-06T06:40:56.151Z,13.50
2023-04-06T06:43:27.623Z,13.15
2023-04-06T06:46:04.852Z,15.13
2023-04-06T06:48:33.329Z,13.07
2023-04-06T06:51:03.232Z,14.43
2023-04-06T06:53:31.581Z,13.57
2023-04-06T06:55:59.894Z,15.35
2023-04-06T06:58:28.730Z,15.27
2023-04-06T07:00:59.039Z,12.60
2023-04-06T07:03:28.265Z,11.77
2023-04-06T07:05:57.801Z,13.40
2023-04-06T07:08:28.518Z,13.55
2023-04-06T07:10:58.006Z,16.17
2023-04-06T07:13:28.300Z,13.88
2023-04-06T07:15:58.969Z,14.07
2023-04-06T07:18:27.588Z,15.15
2023-04-06T07:20:55.958Z,14.50
2023-04-06T07:23:24.333Z,14.25
2023-04-06T07:25:54.995Z,13.25
2023-04-06T07:28:23.320Z,12.50
2023-04-06T07:30:51.614Z,17.55
2023-04-06T07:33:20.097Z,13.73
2023-04-06T07:35:48.962Z,13.65
2023-04-06T07:38:17.723Z,15.55
2023-04-06T07:40:46.182Z,12.60
2023-04-06T07:43:16.826Z,14.65
2023-04-06T07:45:45.193Z,14.10
2023-04-06T07:48:15.999Z,12.65
2023-04-06T07:50:44.296Z,13.75
2023-04-06T07:53:12.710Z,12.35
2023-04-06T07:55:41.341Z,12.85
2023-04-06T07:58:09.688Z,13.30
2023-04-06T08:00:39.377Z,13.23
2023-04-06T08:03:08.253Z,13.68
2023-04-06T08:05:36.788Z,12.88
2023-04-06T08:08:05.272Z,10.68
2023-04-06T08:10:35.487Z,12.65
2023-04-06T08:13:03.838Z,12.27
2023-04-06T08:15:32.175Z,11.02
2023-04-06T08:18:02.029Z,10.43
2023-04-06T08:20:30.275Z,12.20
2023-04-06T08:22:58.633Z,10.60
2023-04-06T08:25:27.057Z,11.48
2023-04-06T08:27:55.341Z,11.35
2023-04-06T08:30:23.552Z,9.77
2023-04-06T08:32:52.049Z,12.45
2023-04-06T08:35:21.780Z,10.30
2023-04-06T08:37:50.527Z,11.30
2023-04-06T08:40:18.889Z,10.30
2023-04-06T08:42:52.164Z,10.70
2023-04-06T08:45:22.328Z,11.45
2023-04-06T08:47:52.408Z,12.00
2023-04-06T08:50:23.247Z,11.10
2023-04-06T08:52:51.672Z,11.40
2023-04-06T08:55:20.173Z,11.07
2023-04-06T08:57:49.553Z,11.73
2023-04-06T09:00:18.816Z,10.80
2023-04-06T09:02:48.406Z,12.45
2023-04-06T09:05:17.564Z,12.35
2023-04-06T09:07:47.473Z,11.35
2023-04-06T09:10:16.529Z,12.73
2023-04-06T09:12:45.232Z,13.70
2023-04-06T09:15:22.926Z,11.30
2023-04-06T09:17:54.926Z,11.18
2023-04-06T09:20:26.922Z,10.18
2023-04-06T09:22:57.633Z,10.60
2023-04-06T09:25:28.112Z,10.63
2023-04-06T09:28:04.044Z,11.10
2023-04-06T09:30:32.988Z,11.98
2023-04-06T09:33:01.400Z,12.95
2023-04-06T09:35:31.438Z,11.77
2023-04-06T09:38:01.091Z,10.70
2023-04-06T09:40:30.245Z,10.60
2023-04-06T09:43:00.362Z,10.73
2023-04-06T09:45:31.643Z,11.27
2023-04-06T09:48:01.471Z,10.05
2023-04-06T09:50:30.389Z,10.25
2023-04-06T09:53:03.355Z,11.55
2023-04-06T09:55:37.115Z,12.52
2023-04-06T09:58:07.653Z,11.40
2023-04-06T10:00:45.344Z,10.32
2023-04-06T10:03:23.284Z,11.45
2023-04-06T10:05:59.475Z,10.77
2023-04-06T10:08:33.034Z,11.18
2023-04-06T10:11:02.875Z,11.90
2023-04-06T10:13:31.232Z,11.00
2023-04-06T10:16:02.317Z,10.13
2023-04-06T10:18:31.297Z,11.93
2023-04-06T10:21:06.489Z,10.73
2023-04-06T10:23:39.364Z,11.60
2023-04-06T10:26:08.292Z,10.63
2023-04-06T10:28:37.851Z,10.55
2023-04-06T10:31:08.014Z,10.85
2023-04-06T10:33:36.655Z,10.82
2023-04-06T10:36:14.697Z,10.75
2023-04-06T10:38:44.679Z,12.35
2023-04-06T10:41:14.935Z,10.35
2023-04-06T10:43:44.173Z,12.07
2023-04-06T10:46:12.997Z,12.70
2023-04-06T10:48:42.220Z,10.40
2023-04-06T10:51:12.164Z,11.25
2023-04-06T10:53:42.076Z,10.48
2023-04-06T10:56:14.109Z,10.15
2023-04-06T10:58:47.704Z,9.65
2023-04-06T11:01:17.398Z,10.40
2023-04-06T11:03:47.068Z,11.70
2023-04-06T11:06:21.603Z,11.35
2023-04-06T11:08:50.051Z,11.18
2023-04-06T11:11:21.242Z,10.18
2023-04-06T11:13:51.957Z,11.80
2023-04-06T11:16:21.764Z,11.52
2023-04-06T11:18:55.308Z,10.57
2023-04-06T11:21:34.694Z,12.23
2023-04-06T11:24:07.867Z,10.55
2023-04-06T11:26:42.121Z,10.50
2023-04-06T11:29:10.663Z,9.27
2023-04-06T11:31:47.959Z,10.20
2023-04-06T11:34:19.683Z,10.05
2023-04-06T11:36:49.322Z,11.98
2023-04-06T11:39:24.218Z,10.55
2023-04-06T11:41:55.367Z,11.15
2023-04-06T11:44:32.118Z,11.15
2023-04-06T11:47:01.200Z,11.63
2023-04-06T11:49:30.367Z,10.90
2023-04-06T11:51:59.356Z,11.52
2023-04-06T11:54:38.142Z,12.50
2023-04-06T11:57:08.265Z,11.57
2023-04-06T11:59:36.729Z,10.73
2023-04-06T12:02:05.596Z,12.13
2023-04-06T12:04:34.223Z,11.15
2023-04-06T12:07:02.645Z,12.00
2023-04-06T12:09:31.582Z,10.77
2023-04-06T12:11:59.926Z,10.98
2023-04-06T12:14:29.639Z,10.45
2023-04-06T12:16:58.192Z,11.25
2023-04-06T12:19:27.136Z,10.50
2023-04-06T12:21:55.846Z,11.02
2023-04-06T12:24:24.155Z,10.55
2023-04-06T12:26:59.645Z,10.20
2023-04-06T12:29:36.398Z,9.70
2023-04-06T12:32:04.732Z,10.05
2023-04-06T12:34:32.967Z,10.40
2023-04-06T12:37:01.360Z,9.38
2023-04-06T12:39:29.890Z,10.50
2023-04-06T12:41:58.772Z,12.00
2023-04-06T12:44:27.312Z,9.63
2023-04-06T12:46:57.292Z,9.85
2023-04-06T12:49:25.753Z,11.93
2023-04-06T12:51:54.048Z,10.38
2023-04-06T12:54:22.287Z,10.60
2023-04-06T12:56:50.698Z,11.82
2023-04-06T12:59:19.077Z,11.00
2023-04-06T13:01:47.626Z,11.35
2023-04-06T13:04:17.187Z,12.18
2023-04-06T13:06:45.492Z,10.15
2023-04-06T13:09:13.769Z,11.30
2023-04-06T13:11:42.499Z,12.40
2023-04-06T13:14:11.050Z,12.13
2023-04-06T13:16:39.366Z,9.98
2023-04-06T13:19:07.914Z,10.80
2023-04-06T13:21:37.548Z,11.40
2023-04-06T13:24:06.728Z,11.50
2023-04-06T13:26:34.979Z,11.60
2023-04-06T13:29:03.592Z,11.38
2023-04-06T13:31:32.486Z,11.60
2023-04-06T13:34:00.949Z,9.48
2023-04-06T13:36:29.163Z,10.88
2023-04-06T13:38:58.829Z,12.43
2023-04-06T13:41:27.627Z,9.63
2023-04-06T13:43:56.128Z,9.65
2023-04-06T13:46:25.268Z,9.80
2023-04-06T13:48:53.672Z,9.65
2023-04-06T13:51:22.017Z,10.57
2023-04-06T13:53:53.631Z,10.45
2023-04-06T13:56:23.331Z,10.07
2023-04-06T13:58:51.545Z,11.07
2023-04-06T14:01:19.956Z,10.90
2023-04-06T14:03:49.004Z,9.18
2023-04-06T14:06:29.759Z,10.60
2023-04-06T14:08:59.243Z,10.40
2023-04-06T14:11:28.880Z,14.05
2023-04-06T14:13:58.516Z,14.32
2023-04-06T14:16:27.696Z,12.48
2023-04-06T14:18:56.291Z,15.57
2023-04-06T14:21:24.480Z,14.88
2023-04-06T14:23:53.645Z,10.25
2023-04-06T14:26:21.920Z,11.07
2023-04-06T14:28:51.579Z,12.57
2023-04-06T14:31:19.918Z,13.30
2023-04-06T14:33:48.169Z,12.23
2023-04-06T14:36:16.510Z,12.63
2023-04-06T14:38:45.086Z,14.10
2023-04-06T14:41:18.926Z,11.80
2023-04-06T14:43:48.559Z,15.10
2023-04-06T14:46:18.403Z,14.25
2023-04-06T14:48:47.265Z,15.30
2023-04-06T14:51:15.826Z,14.65
2023-04-06T14:53:44.248Z,14.25
2023-04-06T14:56:12.684Z,13.20
2023-04-06T14:58:40.901Z,12.60
2023-04-06T15:01:09.542Z,12.20
2023-04-06T15:03:39.392Z,12.55
2023-04-06T15:06:08.119Z,12.20
2023-04-06T15:08:36.285Z,13.00
2023-04-06T15:11:04.590Z,12.88
2023-04-06T15:13:32.958Z,14.20
2023-04-06T15:16:02.121Z,13.40
2023-04-06T15:18:30.525Z,15.60
2023-04-06T15:21:00.162Z,14.40
2023-04-06T15:23:30.689Z,14.30
2023-04-06T15:25:59.322Z,14.65
2023-04-06T15:28:27.723Z,16.48
2023-04-06T15:30:56.479Z,14.00
2023-04-06T15:33:24.703Z,15.73
2023-04-06T15:35:53.162Z,15.02
2023-04-06T15:38:23.685Z,13.70
2023-04-06T15:40:51.908Z,15.35
2023-04-06T15:43:20.193Z,16.15
2023-04-06T15:45:48.630Z,14.38
2023-04-06T15:48:16.777Z,15.90
2023-04-06T15:50:45.035Z,16.83
2023-04-06T15:53:13.321Z,16.30
2023-04-06T15:55:42.901Z,14.70
2023-04-06T15:58:11.051Z,16.17
2023-04-06T16:00:39.327Z,13.85
2023-04-06T16:03:07.786Z,14.57
2023-04-06T16:05:48.573Z,14.70
2023-04-06T16:08:24.790Z,15.88
2023-04-06T16:10:54.371Z,16.40
2023-04-06T16:13:22.855Z,16.35
2023-04-06T16:15:51.534Z,15.20
2023-04-06T16:18:20.005Z,15.30
2023-04-06T16:20:48.273Z,14.70
2023-04-06T16:23:16.586Z,13.73
2023-04-06T16:25:44.875Z,15.68
2023-04-06T16:28:14.380Z,16.15
2023-04-06T16:30:44.807Z,16.05
2023-04-06T16:33:17.076Z,19.55
2023-04-06T16:35:45.733Z,15.27
2023-04-06T16:38:14.494Z,15.25
2023-04-06T16:40:42.863Z,15.60
2023-04-06T16:43:11.266Z,15.55
2023-04-06T16:45:41.262Z,16.60
2023-04-06T16:48:09.543Z,35.47
2023-04-06T16:50:38.027Z,16.05
2023-04-06T16:53:06.215Z,19.35
2023-04-06T16:55:34.441Z,17.63
2023-04-06T16:58:02.677Z,15.55
2023-04-06T17:00:30.946Z,14.35
2023-04-06T17:03:00.703Z,15.20
2023-04-06T17:05:29.067Z,14.32
2023-04-06T17:07:57.335Z,15.38
2023-04-06T17:10:33.099Z,20.50
2023-04-06T17:13:06.256Z,16.08
2023-04-06T17:15:34.576Z,17.63
2023-04-06T17:18:04.371Z,19.55
2023-04-06T17:20:34.782Z,17.77
2023-04-06T17:23:03.029Z,22.23
2023-04-06T17:25:31.249Z,21.83
2023-04-06T17:27:59.443Z,16.95
2023-04-06T17:30:28.045Z,22.90
2023-04-06T17:32:56.949Z,23.40
2023-04-06T17:35:27.064Z,16.60
2023-04-06T17:37:55.207Z,19.38
2023-04-06T17:40:23.417Z,12.98
2023-04-06T17:42:51.809Z,16.30
2023-04-06T17:45:20.186Z,17.70
2023-04-06T17:47:48.391Z,16.60
2023-04-06T17:50:16.902Z,12.73
2023-04-06T17:52:47.243Z,14.50
2023-04-06T17:55:15.544Z,17.20
2023-04-06T17:57:44.276Z,14.73
2023-04-06T18:00:15.314Z,15.73
2023-04-06T18:02:43.482Z,16.83
2023-04-06T18:05:12.424Z,13.10
2023-04-06T18:07:40.684Z,16.58
2023-04-06T18:10:11.822Z,16.50
2023-04-06T18:12:40.508Z,15.35
2023-04-06T18:15:09.268Z,14.20
2023-04-06T18:17:37.703Z,16.75
2023-04-06T18:20:06.667Z,14.80
2023-04-06T18:22:36.696Z,15.18
2023-04-06T18:25:05.651Z,17.77
2023-04-06T18:27:35.373Z,16.20
2023-04-06T18:30:03.978Z,14.70
2023-04-06T18:32:32.273Z,13.52
2023-04-06T18:35:00.646Z,15.40
2023-04-06T18:37:28.850Z,14.15
2023-04-06T18:39:57.221Z,13.18
2023-04-06T18:42:25.551Z,13.57
2023-04-06T18:44:55.161Z,14.50
2023-04-06T18:47:23.469Z,14.20
2023-04-06T18:49:51.732Z,13.80
2023-04-06T18:52:19.902Z,14.18
2023-04-06T18:54:48.378Z,13.25
2023-04-06T18:57:16.578Z,13.70
2023-04-06T18:59:44.941Z,15.35
2023-04-06T19:02:14.673Z,13.43
2023-04-06T19:04:43.219Z,15.23
2023-04-06T19:07:11.526Z,14.25
2023-04-06T19:09:39.785Z,15.05
2023-04-06T19:12:08.187Z,14.48
2023-04-06T19:14:36.517Z,13.38
2023-04-06T19:17:04.806Z,14.40
2023-04-06T19:19:34.431Z,11.82
2023-04-06T19:22:02.593Z,13.23
2023-04-06T19:24:30.911Z,14.77
2023-04-06T19:26:59.395Z,14.70
2023-04-06T19:29:27.850Z,13.43
2023-04-06T19:31:56.103Z,13.80
2023-04-06T19:34:24.636Z,16.38
2023-04-06T19:36:54.205Z,13.02
2023-04-06T19:39:22.510Z,14.93
2023-04-06T19:41:50.752Z,14.27
2023-04-06T19:44:19.066Z,12.95
2023-04-06T19:46:47.474Z,13.57
2023-04-06T19:49:15.880Z,13.00
2023-04-06T19:51:44.225Z,14.13
2023-04-06T19:54:14.130Z,12.63
2023-04-06T19:56:42.392Z,13.43
2023-04-06T19:59:11.465Z,13.40
2023-04-06T20:01:39.734Z,13.18
2023-04-06T20:04:08.326Z,13.65
2023-04-06T20:06:36.698Z,13.27
2023-04-06T20:09:06.311Z,14.02
2023-04-06T20:11:36.517Z,14.20
2023-04-06T20:14:05.022Z,14.88
2023-04-06T20:16:33.346Z,15.35
2023-04-06T20:19:01.556Z,15.95
2023-04-06T20:21:30.004Z,15.02
2023-04-06T20:23:58.277Z,16.35
2023-04-06T20:26:27.139Z,15.65
2023-04-06T20:28:56.876Z,13.85
2023-04-06T20:31:27.878Z,12.30
2023-04-06T20:33:56.412Z,10.73
2023-04-06T20:36:24.654Z,13.15
2023-04-06T20:38:52.892Z,12.90
2023-04-06T20:41:21.935Z,11.80
2023-04-06T20:43:50.244Z,11.32
2023-04-06T20:46:19.935Z,12.27
2023-04-06T20:48:48.277Z,11.32
2023-04-06T20:51:21.306Z,12.10
2023-04-06T20:53:49.707Z,11.05
2023-04-06T20:56:17.820Z,11.50
2023-04-06T20:58:46.335Z,11.52
2023-04-06T21:01:16.150Z,10.68
2023-04-06T21:03:46.267Z,12.80
2023-04-06T21:06:14.496Z,12.30
2023-04-06T21:08:43.131Z,12.10
2023-04-06T21:11:11.634Z,12.70
2023-04-06T21:13:40.419Z,12.95
2023-04-06T21:16:09.154Z,11.75
2023-04-06T21:18:37.452Z,12.48
2023-04-06T21:21:07.339Z,11.73
2023-04-06T21:23:35.750Z,12.32
2023-04-06T21:26:03.972Z,12.32
2023-04-06T21:28:32.198Z,13.63
2023-04-06T21:31:00.448Z,12.10
2023-04-06T21:33:28.681Z,11.10
2023-04-06T21:35:57.026Z,11.32
2023-04-06T21:38:27.169Z,12.45
2023-04-06T21:40:56.497Z,12.90
2023-04-06T21:43:24.833Z,11.15
2023-04-06T21:45:53.094Z,11.65
2023-04-06T21:48:21.394Z,11.65
2023-04-06T21:50:49.560Z,11.93
2023-04-06T21:53:17.774Z,13.35
2023-04-06T21:55:47.497Z,13.50
2023-04-06T21:58:16.742Z,12.57
2023-04-06T22:00:45.019Z,11.80
2023-04-06T22:03:13.460Z,13.00
2023-04-06T22:05:41.848Z,11.65
2023-04-06T22:08:15.115Z,12.40
2023-04-06T22:10:47.303Z,13.25
2023-04-06T22:13:15.564Z,12.77
2023-04-06T22:15:43.716Z,11.98
2023-04-06T22:18:11.915Z,11.93
2023-04-06T22:20:40.152Z,11.93
2023-04-06T22:23:08.389Z,10.65
2023-04-06T22:25:36.631Z,11.05
2023-04-06T22:28:06.871Z,12.27
2023-04-06T22:30:35.109Z,11.95
2023-04-06T22:33:03.353Z,11.48
2023-04-06T22:35:31.707Z,12.13
2023-04-06T22:38:00.787Z,11.82
2023-04-06T22:40:29.015Z,12.57
2023-04-06T22:42:57.197Z,11.90
2023-04-06T22:45:26.869Z,13.63
2023-04-06T22:47:55.174Z,12.00
2023-04-06T22:50:23.783Z,13.30
2023-04-06T22:52:52.077Z,12.43
2023-04-06T22:55:20.404Z,12.20
2023-04-06T22:57:48.643Z,12.23
2023-04-06T23:00:17.092Z,13.43
2023-04-06T23:02:46.967Z,11.88
2023-04-06T23:05:15.207Z,11.80
2023-04-06T23:07:43.381Z,11.82
2023-04-06T23:10:11.918Z,11.50
2023-04-06T23:12:40.235Z,12.90
2023-04-06T23:15:09.589Z,12.70
2023-04-06T23:17:37.963Z,10.75
2023-04-06T23:20:09.028Z,13.02
2023-04-06T23:22:37.278Z,13.13
2023-04-06T23:25:07.622Z,12.00
2023-04-06T23:27:35.828Z,12.38
2023-04-06T23:30:04.121Z,12.00
2023-04-06T23:32:32.543Z,12.52
2023-04-06T23:35:00.903Z,12.82
2023-04-06T23:37:30.625Z,13.10
2023-04-06T23:40:00.243Z,13.20
2023-04-06T23:42:29.191Z,11.27
2023-04-06T23:44:57.595Z,12.30
2023-04-06T23:47:25.982Z,13.23
2023-04-06T23:49:54.195Z,12.07
2023-04-06T23:52:22.397Z,12.65
2023-04-06T23:54:52.411Z,11.85
2023-04-06T23:57:20.781Z,13.60
2023-04-06T23:59:48.906Z,12.38
